createdAt,value
2019-02-05T00:00:52.143Z,22.67
2019-02-05T00:03:23.688Z,22.63
2019-02-05T00:05:55.373Z,22.50
2019-02-05T00:08:27.743Z,23.57
2019-02-05T00:10:59.291Z,24.60
2019-02-05T00:13:30.402Z,23.40
2019-02-05T00:16:01.457Z,22.87
2019-02-05T00:18:43.809Z,22.83
2019-02-05T00:21:14.856Z,23.37
2019-02-05T00:23:45.941Z,23.50
2019-02-05T00:26:16.983Z,22.50
2019-02-05T00:28:48.068Z,24.47
2019-02-05T00:31:19.124Z,22.03
2019-02-05T00:33:50.205Z,24.03
2019-02-05T00:36:21.253Z,23.00
2019-02-05T00:38:52.318Z,23.97
2019-02-05T00:41:23.363Z,24.00
2019-02-05T00:43:54.450Z,24.33
2019-02-05T00:46:25.517Z,25.17
2019-02-05T00:48:56.637Z,22.63
2019-02-05T00:51:27.820Z,23.27
2019-02-05T00:53:58.891Z,22.90
2019-02-05T00:56:29.967Z,22.52
2019-02-05T00:59:01.352Z,22.57
2019-02-05T01:01:32.471Z,22.13
2019-02-05T01:04:03.670Z,22.47
2019-02-05T01:06:34.885Z,22.73
2019-02-05T01:09:09.363Z,22.70
2019-02-05T01:11:40.487Z,24.65
2019-02-05T01:14:11.669Z,24.27
2019-02-05T01:16:42.720Z,24.00
2019-02-05T01:19:13.813Z,22.80
2019-02-05T01:21:44.892Z,21.60
2019-02-05T01:24:16.078Z,23.65
2019-02-05T01:26:47.136Z,23.20
2019-02-05T01:29:18.307Z,24.90
2019-02-05T01:31:49.368Z,23.10
2019-02-05T01:34:20.442Z,26.13
2019-02-05T01:36:51.511Z,23.73
2019-02-05T01:39:22.741Z,24.93
2019-02-05T01:41:53.813Z,25.50
2019-02-05T01:44:24.866Z,24.07
2019-02-05T01:46:56.029Z,23.77
2019-02-05T01:49:27.090Z,24.03
2019-02-05T01:51:58.661Z,23.27
2019-02-05T01:54:29.731Z,24.20
2019-02-05T01:57:00.783Z,24.60
2019-02-05T01:59:32.080Z,22.67
2019-02-05T02:02:03.328Z,23.77
2019-02-05T02:04:34.993Z,24.12
2019-02-05T02:07:07.470Z,22.98
2019-02-05T02:09:38.547Z,22.97
2019-02-05T02:12:09.774Z,24.32
2019-02-05T02:14:40.933Z,23.10
2019-02-05T02:17:12.573Z,20.68
2019-02-05T02:19:43.647Z,23.33
2019-02-05T02:22:14.709Z,23.57
2019-02-05T02:24:45.806Z,22.22
2019-02-05T02:27:16.885Z,23.77
2019-02-05T02:29:48.001Z,24.15
2019-02-05T02:32:19.104Z,22.85
2019-02-05T02:34:50.264Z,23.75
2019-02-05T02:37:21.306Z,24.57
2019-02-05T02:39:52.397Z,24.67
2019-02-05T02:42:35.484Z,24.23
2019-02-05T02:45:07.839Z,23.67
2019-02-05T02:47:39.023Z,23.07
2019-02-05T02:50:12.491Z,23.35
2019-02-05T02:52:43.765Z,23.80
2019-02-05T02:55:15.017Z,22.93
2019-02-05T02:57:46.390Z,26.52
2019-02-05T03:00:19.060Z,23.35
2019-02-05T03:02:51.531Z,24.70
2019-02-05T03:05:23.815Z,22.10
2019-02-05T03:07:55.104Z,24.02
2019-02-05T03:10:28.100Z,23.83
2019-02-05T03:12:59.725Z,24.80
2019-02-05T03:15:30.835Z,24.30
2019-02-05T03:18:01.983Z,24.43
2019-02-05T03:20:33.719Z,27.55
2019-02-05T03:23:04.775Z,28.23
2019-02-05T03:25:35.861Z,26.23
2019-02-05T03:28:06.927Z,28.73
2019-02-05T03:30:38.063Z,28.75
2019-02-05T03:33:09.272Z,29.10
2019-02-05T03:35:40.772Z,28.65
2019-02-05T03:38:11.835Z,29.85
2019-02-05T03:41:03.215Z,30.15
2019-02-05T03:43:38.825Z,28.75
2019-02-05T03:46:12.580Z,30.43
2019-02-05T03:48:46.962Z,28.55
2019-02-05T03:51:42.491Z,26.07
2019-02-05T03:55:04.151Z,28.42
2019-02-05T03:58:09.150Z,29.37
2019-02-05T04:01:13.017Z,28.70
2019-02-05T04:04:19.809Z,29.57
2019-02-05T04:07:37.646Z,25.50
2019-02-05T04:10:45.270Z,25.05
2019-02-05T04:14:05.453Z,25.92
2019-02-05T04:17:05.250Z,24.45
2019-02-05T04:20:17.388Z,26.33
2019-02-05T04:23:25.561Z,26.85
2019-02-05T04:26:37.651Z,26.10
2019-02-05T04:29:43.254Z,24.60
2019-02-05T04:32:40.153Z,25.72
2019-02-05T04:35:39.053Z,25.75
2019-02-05T04:38:54.305Z,26.77
2019-02-05T04:42:13.198Z,26.35
2019-02-05T04:45:17.991Z,27.37
2019-02-05T04:48:32.120Z,27.30
2019-02-05T04:51:29.934Z,27.65
2019-02-05T04:54:29.319Z,26.62
2019-02-05T04:57:33.198Z,27.37
2019-02-05T05:00:29.542Z,26.20
2019-02-05T05:03:15.807Z,27.65
2019-02-05T05:06:10.426Z,26.77
2019-02-05T05:09:25.884Z,27.35
2019-02-05T05:11:56.940Z,27.73
2019-02-05T05:14:28.432Z,28.12
2019-02-05T05:16:59.581Z,28.85
2019-02-05T05:19:30.688Z,27.52
2019-02-05T05:22:01.869Z,28.05
2019-02-05T05:24:33.100Z,27.67
2019-02-05T05:27:05.653Z,27.02
2019-02-05T05:29:36.810Z,26.82
2019-02-05T05:32:08.492Z,27.45
2019-02-05T05:34:39.650Z,26.48
2019-02-05T05:37:09.053Z,25.80
2019-02-05T05:39:40.220Z,27.02
2019-02-05T05:42:11.381Z,25.95
2019-02-05T05:44:42.444Z,28.67
2019-02-05T05:47:13.533Z,27.10
2019-02-05T05:49:44.673Z,28.60
2019-02-05T05:52:16.224Z,27.02
2019-02-05T05:54:47.396Z,26.45
2019-02-05T05:57:18.842Z,26.30
2019-02-05T05:59:50.463Z,26.00
2019-02-05T06:02:22.244Z,27.93
2019-02-05T06:04:53.632Z,27.93
2019-02-05T06:07:24.812Z,27.45
2019-02-05T06:09:55.946Z,27.35
2019-02-05T06:12:27.141Z,26.85
2019-02-05T06:14:58.406Z,26.55
2019-02-05T06:17:29.638Z,26.20
2019-02-05T06:20:00.947Z,27.98
2019-02-05T06:22:32.165Z,26.75
2019-02-05T06:25:03.259Z,26.97
2019-02-05T06:27:34.605Z,28.35
2019-02-05T06:30:07.219Z,31.50
2019-02-05T06:32:38.463Z,29.87
2019-02-05T06:35:09.945Z,32.30
2019-02-05T06:37:41.210Z,28.40
2019-02-05T06:40:15.087Z,30.72
2019-02-05T06:42:46.788Z,28.50
2019-02-05T06:45:18.020Z,28.87
2019-02-05T06:47:49.120Z,29.30
2019-02-05T06:50:20.312Z,28.98
2019-02-05T06:52:51.440Z,30.85
2019-02-05T06:55:22.518Z,28.55
2019-02-05T06:57:53.713Z,29.40
2019-02-05T07:00:26.050Z,30.23
2019-02-05T07:02:57.143Z,28.57
2019-02-05T07:05:28.566Z,30.55
2019-02-05T07:07:59.859Z,29.05
2019-02-05T07:10:31.021Z,28.87
2019-02-05T07:13:02.171Z,27.75
2019-02-05T07:15:33.346Z,28.50
2019-02-05T07:18:04.522Z,27.55
2019-02-05T07:20:37.305Z,28.40
2019-02-05T07:23:08.465Z,29.20
2019-02-05T07:25:39.618Z,30.27
2019-02-05T07:28:10.771Z,30.50
2019-02-05T07:30:42.007Z,31.60
2019-02-05T07:33:13.193Z,31.80
2019-02-05T07:35:44.398Z,33.92
2019-02-05T07:38:15.665Z,35.63
2019-02-05T07:40:46.805Z,33.53
2019-02-05T07:43:17.943Z,34.38
2019-02-05T07:45:49.109Z,31.45
2019-02-05T07:48:20.251Z,32.88
2019-02-05T07:50:51.569Z,30.48
2019-02-05T07:53:22.722Z,30.72
2019-02-05T07:55:54.045Z,29.02
2019-02-05T07:58:25.231Z,29.98
2019-02-05T08:00:56.441Z,29.37
2019-02-05T08:03:27.686Z,29.37
2019-02-05T08:05:59.112Z,30.27
2019-02-05T08:08:30.299Z,29.12
2019-02-05T08:11:01.473Z,30.05
2019-02-05T08:13:32.753Z,31.30
2019-02-05T08:16:03.806Z,30.85
2019-02-05T08:18:41.886Z,32.93
2019-02-05T08:21:12.941Z,31.45
2019-02-05T08:23:44.210Z,30.05
2019-02-05T08:26:15.355Z,30.55
2019-02-05T08:28:46.518Z,29.90
2019-02-05T08:31:17.668Z,27.98
2019-02-05T08:33:49.344Z,29.27
2019-02-05T08:36:20.525Z,31.75
2019-02-05T08:38:51.622Z,29.72
2019-02-05T08:41:22.719Z,32.17
2019-02-05T08:43:53.904Z,31.07
2019-02-05T08:46:25.088Z,30.70
2019-02-05T08:48:56.476Z,31.70
2019-02-05T08:51:27.642Z,28.42
2019-02-05T08:53:58.893Z,29.57
2019-02-05T08:56:30.019Z,30.20
2019-02-05T08:59:01.192Z,31.05
2019-02-05T09:01:32.503Z,31.68
2019-02-05T09:04:04.041Z,32.10
2019-02-05T09:06:35.572Z,31.93
2019-02-05T09:09:09.114Z,32.00
2019-02-05T09:11:40.835Z,32.35
2019-02-05T09:14:12.841Z,31.97
2019-02-05T09:16:45.299Z,30.85
2019-02-05T09:19:16.400Z,32.30
2019-02-05T09:21:47.471Z,31.50
2019-02-05T09:24:18.699Z,30.97
2019-02-05T09:26:49.756Z,32.33
2019-02-05T09:29:20.830Z,31.52
2019-02-05T09:31:51.975Z,31.40
2019-02-05T09:34:23.135Z,31.93
2019-02-05T09:36:54.265Z,31.27
2019-02-05T09:39:25.395Z,31.15
2019-02-05T09:41:56.538Z,29.15
2019-02-05T09:44:28.093Z,30.50
2019-02-05T09:46:59.172Z,30.40
2019-02-05T09:49:31.445Z,28.80
2019-02-05T09:52:02.496Z,29.85
2019-02-05T09:54:33.648Z,27.30
2019-02-05T09:57:04.814Z,27.15
2019-02-05T09:59:45.062Z,29.05
2019-02-05T10:02:08.752Z,27.77
2019-02-05T10:04:39.920Z,27.77
2019-02-05T10:07:11.257Z,27.22
2019-02-05T10:09:42.424Z,28.05
2019-02-05T10:12:14.175Z,28.90
2019-02-05T10:14:45.477Z,28.83
2019-02-05T10:17:16.827Z,28.55
2019-02-05T10:19:48.016Z,25.32
2019-02-05T10:22:20.067Z,26.90
2019-02-05T10:24:51.215Z,27.40
2019-02-05T10:27:22.467Z,28.50
2019-02-05T10:29:57.881Z,28.17
2019-02-05T10:32:26.384Z,29.20
2019-02-05T10:34:57.536Z,27.73
2019-02-05T10:37:28.714Z,27.70
2019-02-05T10:40:00.375Z,27.48
2019-02-05T10:42:31.587Z,29.65
2019-02-05T10:45:02.712Z,27.60
2019-02-05T10:47:33.906Z,28.42
2019-02-05T10:50:06.537Z,28.92
2019-02-05T10:52:37.745Z,28.75
2019-02-05T10:55:10.764Z,28.32
2019-02-05T10:57:41.930Z,28.67
2019-02-05T11:00:19.127Z,26.02
2019-02-05T11:02:50.187Z,28.00
2019-02-05T11:05:23.135Z,27.58
2019-02-05T11:07:54.798Z,27.22
2019-02-05T11:10:25.944Z,26.40
2019-02-05T11:12:57.350Z,25.85
2019-02-05T11:15:30.507Z,27.50
2019-02-05T11:18:02.654Z,26.95
2019-02-05T11:20:34.399Z,27.35
2019-02-05T11:23:06.482Z,26.70
2019-02-05T11:25:37.803Z,27.80
2019-02-05T11:28:09.195Z,26.90
2019-02-05T11:30:45.184Z,28.05
2019-02-05T11:33:17.069Z,27.62
2019-02-05T11:35:48.356Z,26.30
2019-02-05T11:38:19.797Z,27.45
2019-02-05T11:40:50.929Z,28.67
2019-02-05T11:43:22.393Z,28.12
2019-02-05T11:45:54.823Z,26.48
2019-02-05T11:48:26.018Z,25.52
2019-02-05T11:50:57.192Z,27.70
2019-02-05T11:53:28.511Z,24.80
2019-02-05T11:55:59.699Z,26.45
2019-02-05T11:58:43.575Z,24.65
2019-02-05T12:01:23.820Z,24.32
2019-02-05T12:03:55.325Z,26.07
2019-02-05T12:06:26.504Z,26.37
2019-02-05T12:08:57.904Z,23.52
2019-02-05T12:11:29.590Z,25.25
2019-02-05T12:14:01.330Z,25.52
2019-02-05T12:16:32.647Z,24.98
2019-02-05T12:19:04.154Z,25.17
2019-02-05T12:21:35.476Z,25.27
2019-02-05T12:24:06.978Z,26.73
2019-02-05T12:26:38.255Z,26.12
2019-02-05T12:29:21.212Z,26.10
2019-02-05T12:31:52.431Z,25.65
2019-02-05T12:34:23.897Z,24.13
2019-02-05T12:36:55.449Z,25.80
2019-02-05T12:39:26.673Z,24.00
2019-02-05T12:41:57.956Z,24.92
2019-02-05T12:44:34.419Z,23.50
2019-02-05T12:47:05.542Z,24.15
2019-02-05T12:49:37.315Z,24.47
2019-02-05T12:52:08.653Z,25.02
2019-02-05T12:54:40.116Z,25.40
2019-02-05T12:57:11.355Z,26.00
2019-02-05T12:59:42.632Z,25.00
2019-02-05T13:02:13.827Z,25.25
2019-02-05T13:04:45.310Z,22.02
2019-02-05T13:07:16.449Z,24.43
2019-02-05T13:09:47.909Z,23.40
2019-02-05T13:12:19.070Z,23.47
2019-02-05T13:14:50.423Z,23.75
2019-02-05T13:17:21.528Z,24.45
2019-02-05T13:19:52.922Z,23.70
2019-02-05T13:22:24.075Z,22.85
2019-02-05T13:24:55.488Z,25.05
2019-02-05T13:27:26.651Z,24.83
2019-02-05T13:29:58.082Z,25.70
2019-02-05T13:32:29.566Z,24.65
2019-02-05T13:35:01.037Z,24.52
2019-02-05T13:37:32.277Z,22.75
2019-02-05T13:40:03.580Z,24.25
2019-02-05T13:42:34.772Z,24.90
2019-02-05T13:45:07.456Z,25.35
2019-02-05T13:47:38.623Z,25.88
2019-02-05T13:50:13.439Z,24.82
2019-02-05T13:52:44.823Z,26.15
2019-02-05T13:55:21.721Z,24.83
2019-02-05T13:57:52.809Z,26.87
2019-02-05T14:00:26.876Z,24.20
2019-02-05T14:02:58.241Z,27.73
2019-02-05T14:05:30.080Z,29.17
2019-02-05T14:08:01.212Z,26.40
2019-02-05T14:10:33.264Z,27.33
2019-02-05T14:13:05.064Z,25.90
2019-02-05T14:15:38.143Z,25.92
2019-02-05T14:18:10.108Z,26.45
2019-02-05T14:20:41.340Z,28.12
2019-02-05T14:23:12.626Z,27.65
2019-02-05T14:25:43.953Z,26.55
2019-02-05T14:28:15.062Z,27.55
2019-02-05T14:30:57.505Z,25.23
2019-02-05T14:33:39.869Z,25.83
2019-02-05T14:36:11.265Z,27.20
2019-02-05T14:38:42.382Z,26.95
2019-02-05T14:41:13.866Z,26.42
2019-02-05T14:43:45.247Z,27.42
2019-02-05T14:46:16.662Z,26.10
2019-02-05T14:48:47.801Z,28.27
2019-02-05T14:51:18.960Z,25.47
2019-02-05T14:53:50.316Z,23.50
2019-02-05T14:56:21.648Z,27.30
2019-02-05T14:58:52.748Z,28.23
2019-02-05T15:01:24.148Z,26.67
2019-02-05T15:03:55.228Z,26.27
2019-02-05T15:06:26.858Z,26.40
2019-02-05T15:08:58.042Z,25.70
2019-02-05T15:11:29.348Z,24.60
2019-02-05T15:14:00.424Z,27.07
2019-02-05T15:16:31.840Z,24.32
2019-02-05T15:19:03.394Z,23.57
2019-02-05T15:21:34.628Z,24.27
2019-02-05T15:24:06.064Z,26.07
2019-02-05T15:26:37.429Z,25.07
2019-02-05T15:29:08.516Z,24.97
2019-02-05T15:31:40.339Z,24.27
2019-02-05T15:34:20.431Z,24.57
2019-02-05T15:36:52.192Z,23.22
2019-02-05T15:39:23.276Z,23.98
2019-02-05T15:41:54.646Z,22.17
2019-02-05T15:44:25.744Z,24.57
2019-02-05T15:46:57.037Z,24.30
2019-02-05T15:49:28.137Z,25.80
2019-02-05T15:51:59.446Z,23.90
2019-02-05T15:54:30.612Z,24.63
2019-02-05T15:57:01.926Z,24.67
2019-02-05T15:59:33.092Z,25.57
2019-02-05T16:02:06.473Z,24.40
2019-02-05T16:04:37.202Z,25.52
2019-02-05T16:07:08.372Z,25.43
2019-02-05T16:09:39.612Z,24.02
2019-02-05T16:12:10.945Z,26.02
2019-02-05T16:14:42.068Z,25.20
2019-02-05T16:17:13.435Z,25.85
2019-02-05T16:19:44.524Z,24.30
2019-02-05T16:22:15.975Z,25.90
2019-02-05T16:24:47.080Z,25.40
2019-02-05T16:27:18.420Z,25.92
2019-02-05T16:29:49.612Z,24.82
2019-02-05T16:32:20.921Z,24.20
2019-02-05T16:34:52.778Z,25.02
2019-02-05T16:37:24.120Z,24.87
2019-02-05T16:39:55.212Z,23.80
2019-02-05T16:42:26.529Z,24.50
2019-02-05T16:44:57.734Z,26.30
2019-02-05T16:47:29.524Z,24.50
2019-02-05T16:50:00.692Z,26.93
2019-02-05T16:52:33.450Z,25.37
2019-02-05T16:55:05.064Z,25.77
2019-02-05T16:57:42.188Z,26.50
2019-02-05T17:00:16.873Z,24.92
2019-02-05T17:02:48.178Z,24.77
2019-02-05T17:05:21.296Z,27.25
2019-02-05T17:07:52.610Z,24.80
2019-02-05T17:10:23.756Z,25.08
2019-02-05T17:13:07.035Z,27.65
2019-02-05T17:15:38.118Z,27.82
2019-02-05T17:18:10.184Z,27.67
2019-02-05T17:20:41.250Z,27.22
2019-02-05T17:23:12.504Z,27.43
2019-02-05T17:25:43.680Z,26.87
2019-02-05T17:28:15.078Z,29.10
2019-02-05T17:30:46.250Z,28.03
2019-02-05T17:33:17.484Z,26.67
2019-02-05T17:35:49.032Z,27.37
2019-02-05T17:38:20.468Z,26.87
2019-02-05T17:40:54.492Z,27.50
2019-02-05T17:43:24.604Z,26.60
2019-02-05T17:45:55.789Z,26.73
2019-02-05T17:48:27.608Z,26.55
2019-02-05T17:50:58.750Z,27.90
2019-02-05T17:53:30.099Z,27.40
2019-02-05T17:56:01.190Z,26.90
2019-02-05T17:58:32.498Z,28.42
2019-02-05T18:01:12.633Z,27.73
2019-02-05T18:03:44.002Z,27.85
2019-02-05T18:06:15.148Z,29.05
2019-02-05T18:08:46.592Z,29.27
2019-02-05T18:11:17.646Z,29.92
2019-02-05T18:13:50.112Z,29.30
2019-02-05T18:16:21.442Z,27.50
2019-02-05T18:18:52.721Z,28.20
2019-02-05T18:21:25.136Z,27.87
2019-02-05T18:23:56.340Z,28.95
2019-02-05T18:26:27.476Z,28.05
2019-02-05T18:28:58.841Z,28.35
2019-02-05T18:31:29.986Z,27.15
2019-02-05T18:34:01.444Z,28.27
2019-02-05T18:36:32.562Z,27.20
2019-02-05T18:39:05.513Z,28.33
2019-02-05T18:41:38.284Z,28.90
2019-02-05T18:44:09.692Z,30.17
2019-02-05T18:46:40.908Z,28.57
2019-02-05T18:49:19.662Z,28.20
2019-02-05T18:51:50.782Z,26.95
2019-02-05T18:54:22.259Z,28.87
2019-02-05T18:56:53.420Z,27.90
2019-02-05T18:59:25.262Z,30.40
2019-02-05T19:01:56.749Z,28.10
2019-02-05T19:04:28.072Z,28.27
2019-02-05T19:06:59.234Z,27.65
2019-02-05T19:09:30.555Z,28.90
2019-02-05T19:12:04.740Z,29.55
2019-02-05T19:14:34.804Z,28.83
2019-02-05T19:17:06.002Z,27.32
2019-02-05T19:19:37.385Z,28.80
2019-02-05T19:22:08.495Z,28.23
2019-02-05T19:24:44.829Z,27.27
2019-02-05T19:27:16.315Z,27.25
2019-02-05T19:29:47.711Z,25.08
2019-02-05T19:32:22.668Z,25.10
2019-02-05T19:34:54.094Z,24.75
2019-02-05T19:37:25.248Z,25.92
2019-02-05T19:39:57.069Z,23.12
2019-02-05T19:42:28.205Z,25.62
2019-02-05T19:45:09.416Z,25.00
2019-02-05T19:47:40.603Z,27.17
2019-02-05T19:50:12.208Z,27.02
2019-02-05T19:52:43.806Z,28.40
2019-02-05T19:55:15.427Z,26.10
2019-02-05T19:57:46.921Z,24.45
2019-02-05T20:00:18.429Z,25.65
2019-02-05T20:02:49.585Z,25.12
2019-02-05T20:05:20.827Z,27.25
2019-02-05T20:07:54.392Z,24.90
2019-02-05T20:10:25.876Z,26.30
2019-02-05T20:12:57.005Z,28.15
2019-02-05T20:15:28.376Z,24.75
2019-02-05T20:17:59.461Z,26.25
2019-02-05T20:20:31.707Z,25.25
2019-02-05T20:23:02.985Z,25.20
2019-02-05T20:25:34.380Z,25.48
2019-02-05T20:28:05.572Z,27.05
2019-02-05T20:30:36.902Z,25.27
2019-02-05T20:33:08.001Z,25.90
2019-02-05T20:35:39.478Z,24.98
2019-02-05T20:38:10.638Z,26.25
2019-02-05T20:40:42.881Z,26.37
2019-02-05T20:43:14.090Z,27.80
2019-02-05T20:45:45.485Z,26.50
2019-02-05T20:48:16.830Z,26.42
2019-02-05T20:50:48.174Z,25.45
2019-02-05T20:53:19.318Z,25.90
2019-02-05T20:55:50.672Z,24.70
2019-02-05T20:58:21.754Z,24.75
2019-02-05T21:00:54.200Z,27.10
2019-02-05T21:03:25.545Z,25.65
2019-02-05T21:05:56.813Z,25.90
2019-02-05T21:08:27.864Z,27.37
2019-02-05T21:10:59.113Z,26.27
2019-02-05T21:13:30.198Z,26.87
2019-02-05T21:16:01.672Z,29.23
2019-02-05T21:18:32.762Z,26.25
2019-02-05T21:21:04.082Z,28.90
2019-02-05T21:23:37.923Z,26.80
2019-02-05T21:26:08.306Z,28.12
2019-02-05T21:28:39.360Z,29.55
2019-02-05T21:31:11.200Z,29.02
2019-02-05T21:33:42.275Z,30.25
2019-02-05T21:36:13.697Z,27.73
2019-02-05T21:38:45.508Z,27.17
2019-02-05T21:41:17.225Z,26.57
2019-02-05T21:43:48.485Z,25.45
2019-02-05T21:46:19.814Z,25.65
2019-02-05T21:48:50.877Z,26.15
2019-02-05T21:51:22.200Z,26.17
2019-02-05T21:53:53.281Z,27.75
2019-02-05T21:56:24.698Z,27.62
2019-02-05T21:58:55.827Z,26.25
2019-02-05T22:01:27.217Z,27.73
2019-02-05T22:03:58.382Z,25.12
2019-02-05T22:06:29.786Z,26.73
2019-02-05T22:09:01.915Z,27.62
2019-02-05T22:11:35.153Z,26.40
2019-02-05T22:14:06.532Z,26.87
2019-02-05T22:16:37.961Z,27.45
2019-02-05T22:19:09.420Z,28.47
2019-02-05T22:21:40.741Z,27.00
2019-02-05T22:24:11.868Z,25.95
2019-02-05T22:26:43.249Z,26.90
2019-02-05T22:29:14.389Z,29.20
2019-02-05T22:31:46.770Z,29.15
2019-02-05T22:34:18.410Z,28.98
2019-02-05T22:36:49.776Z,27.67
2019-02-05T22:39:20.845Z,29.00
2019-02-05T22:41:52.267Z,28.05
2019-02-05T22:44:23.329Z,26.65
2019-02-05T22:46:54.962Z,28.32
2019-02-05T22:49:26.100Z,27.37
2019-02-05T22:51:58.072Z,28.00
2019-02-05T22:54:29.140Z,28.20
2019-02-05T22:57:00.468Z,26.80
2019-02-05T22:59:32.087Z,25.25
2019-02-05T23:02:05.831Z,23.05
2019-02-05T23:05:21.576Z,23.45
2019-02-05T23:07:53.229Z,25.40
2019-02-05T23:11:05.208Z,24.70
2019-02-05T23:13:36.934Z,24.45
2019-02-05T23:16:08.122Z,25.50
2019-02-05T23:18:39.532Z,26.70
2019-02-05T23:21:10.813Z,26.82
2019-02-05T23:23:42.230Z,25.57
2019-02-05T23:26:13.377Z,26.52
2019-02-05T23:28:44.621Z,24.35
2019-02-05T23:31:15.710Z,26.10
2019-02-05T23:33:47.018Z,25.45
2019-02-05T23:36:18.118Z,25.77
2019-02-05T23:38:49.505Z,25.90
2019-02-05T23:41:20.582Z,26.95
2019-02-05T23:43:51.893Z,26.62
2019-02-05T23:46:23.014Z,25.80
2019-02-05T23:48:54.384Z,24.35
2019-02-05T23:51:25.465Z,24.40
2019-02-05T23:53:57.611Z,25.55
2019-02-05T23:56:47.917Z,26.15
2019-02-05T23:59:19.247Z,26.97
